createdAt,value
2022-12-08T00:02:26.077Z,1.40
2022-12-08T00:07:48.217Z,1.34
2022-12-08T00:12:51.271Z,1.40
2022-12-08T00:17:54.481Z,1.40
2022-12-08T00:22:57.589Z,1.30
2022-12-08T00:28:00.797Z,1.40
2022-12-08T00:33:03.900Z,1.30
2022-12-08T00:38:07.006Z,1.30
2022-12-08T00:43:10.114Z,1.30
2022-12-08T00:48:13.221Z,1.40
2022-12-08T00:53:16.326Z,1.36
2022-12-08T00:58:19.352Z,1.30
2022-12-08T01:03:22.623Z,1.40
2022-12-08T01:08:25.899Z,1.40
2022-12-08T01:13:28.954Z,1.30
2022-12-08T01:18:32.999Z,1.36
2022-12-08T01:23:36.094Z,1.30
2022-12-08T01:28:40.387Z,1.30
2022-12-08T01:33:44.950Z,1.40
2022-12-08T01:38:48.174Z,1.30
2022-12-08T01:44:08.569Z,1.30
2022-12-08T01:49:19.782Z,1.32
2022-12-08T01:54:28.256Z,1.40
2022-12-08T01:59:37.969Z,1.40
2022-12-08T02:04:41.184Z,1.30
2022-12-08T02:09:45.491Z,1.30
2022-12-08T02:14:48.626Z,1.40
2022-12-08T02:20:22.860Z,1.30
2022-12-08T02:25:31.600Z,1.30
2022-12-08T02:31:07.367Z,1.40
2022-12-08T02:36:36.929Z,1.32
2022-12-08T02:41:54.559Z,1.20
2022-12-08T02:47:12.705Z,1.10
2022-12-08T02:52:15.722Z,1.20
2022-12-08T02:58:02.773Z,1.30
2022-12-08T03:03:17.729Z,1.20
2022-12-08T03:08:42.393Z,1.10
2022-12-08T03:13:51.692Z,1.10
2022-12-08T03:19:17.668Z,1.10
2022-12-08T03:24:23.501Z,1.06
2022-12-08T03:29:27.035Z,0.90
2022-12-08T03:34:31.490Z,0.94
2022-12-08T03:39:34.562Z,0.94
2022-12-08T03:44:37.681Z,0.80
2022-12-08T03:49:41.036Z,0.80
2022-12-08T03:54:44.188Z,0.90
2022-12-08T03:59:47.501Z,0.80
2022-12-08T04:04:51.319Z,0.70
2022-12-08T04:09:54.327Z,0.80
2022-12-08T04:14:57.332Z,0.90
2022-12-08T04:20:00.434Z,0.80
2022-12-08T04:25:04.567Z,0.80
2022-12-08T04:30:08.985Z,0.90
2022-12-08T04:35:12.051Z,1.00
2022-12-08T04:40:15.636Z,1.02
2022-12-08T04:45:18.940Z,1.00
2022-12-08T04:50:22.450Z,1.00
2022-12-08T04:55:25.768Z,1.10
2022-12-08T05:00:28.867Z,1.20
2022-12-08T05:05:31.999Z,1.10
2022-12-08T05:10:35.184Z,1.10
2022-12-08T05:15:38.305Z,1.20
2022-12-08T05:20:41.405Z,1.20
2022-12-08T05:25:44.405Z,1.10
2022-12-08T05:30:48.329Z,1.18
2022-12-08T05:35:51.443Z,1.20
2022-12-08T05:40:54.537Z,1.18
2022-12-08T05:45:57.733Z,1.10
2022-12-08T05:51:02.182Z,1.20
2022-12-08T05:56:05.714Z,1.20
2022-12-08T06:01:30.672Z,1.10
2022-12-08T06:06:35.977Z,1.20
2022-12-08T06:11:39.190Z,1.28
2022-12-08T06:16:42.494Z,1.20
2022-12-08T06:21:45.809Z,1.20
2022-12-08T06:26:49.126Z,1.16
2022-12-08T06:31:53.236Z,1.22
2022-12-08T06:36:56.660Z,1.30
2022-12-08T06:42:18.821Z,1.20
2022-12-08T06:47:26.223Z,1.20
2022-12-08T06:52:29.641Z,1.20
2022-12-08T06:57:32.781Z,1.20
2022-12-08T07:02:35.944Z,1.10
2022-12-08T07:07:39.206Z,1.18
2022-12-08T07:12:42.370Z,1.26
2022-12-08T07:17:45.582Z,1.30
2022-12-08T07:22:53.187Z,1.20
2022-12-08T07:27:56.201Z,1.20
2022-12-08T07:32:59.294Z,1.20
2022-12-08T07:38:03.119Z,1.30
2022-12-08T07:43:06.169Z,1.32
2022-12-08T07:48:09.436Z,1.30
2022-12-08T07:53:13.185Z,1.20
2022-12-08T07:58:16.262Z,1.26
2022-12-08T08:03:19.899Z,1.30
2022-12-08T08:08:23.171Z,1.20
2022-12-08T08:13:26.303Z,1.20
2022-12-08T08:18:29.710Z,1.20
2022-12-08T08:23:33.831Z,1.30
2022-12-08T08:28:37.356Z,1.50
2022-12-08T08:33:40.466Z,1.50
2022-12-08T08:38:44.387Z,1.40
2022-12-08T08:43:47.492Z,1.40
2022-12-08T08:48:50.622Z,1.40
2022-12-08T08:53:53.718Z,1.40
2022-12-08T08:58:56.932Z,1.60
2022-12-08T09:04:00.463Z,1.70
2022-12-08T09:09:04.157Z,1.60
2022-12-08T09:14:07.407Z,1.50
2022-12-08T09:19:11.302Z,1.50
2022-12-08T09:24:17.300Z,1.40
2022-12-08T09:29:20.574Z,1.40
2022-12-08T09:34:23.903Z,1.36
2022-12-08T09:39:27.194Z,1.50
2022-12-08T09:44:35.958Z,1.50
2022-12-08T09:50:07.986Z,1.48
2022-12-08T09:55:49.119Z,1.40
2022-12-08T10:00:52.733Z,1.30
2022-12-08T10:06:18.466Z,1.20
2022-12-08T10:11:41.132Z,1.22
2022-12-08T10:16:52.205Z,1.22
2022-12-08T10:21:58.036Z,1.20
2022-12-08T10:27:03.423Z,1.18
2022-12-08T10:32:23.050Z,1.10
2022-12-08T10:37:26.190Z,1.24
2022-12-08T10:42:46.225Z,1.30
2022-12-08T10:48:00.752Z,1.40
2022-12-08T10:53:21.665Z,1.50
2022-12-08T10:58:43.570Z,1.64
2022-12-08T11:04:01.761Z,1.80
2022-12-08T11:09:24.034Z,1.70
2022-12-08T11:14:44.859Z,1.62
2022-12-08T11:20:21.838Z,1.62
2022-12-08T11:25:27.883Z,1.62
2022-12-08T11:30:54.576Z,1.70
2022-12-08T11:36:09.669Z,1.82
2022-12-08T11:41:20.455Z,1.90
2022-12-08T11:46:35.593Z,1.90
2022-12-08T11:51:47.244Z,1.90
2022-12-08T11:56:57.689Z,1.96
2022-12-08T12:02:04.677Z,2.00
2022-12-08T12:07:40.202Z,2.10
2022-12-08T12:13:12.700Z,2.10
2022-12-08T12:18:34.128Z,2.10
2022-12-08T12:24:03.876Z,2.20
2022-12-08T12:29:20.140Z,2.30
2022-12-08T12:34:48.354Z,2.20
2022-12-08T12:40:07.355Z,2.20
2022-12-08T12:45:33.487Z,2.20
2022-12-08T12:50:52.794Z,2.20
2022-12-08T12:56:03.633Z,2.30
2022-12-08T13:01:12.930Z,2.40
2022-12-08T13:06:43.456Z,2.40
2022-12-08T13:11:55.733Z,2.20
2022-12-08T13:17:02.072Z,2.10
2022-12-08T13:22:46.965Z,2.00
2022-12-08T13:27:55.483Z,1.90
2022-12-08T13:33:18.448Z,1.90
2022-12-08T13:38:30.445Z,2.00
2022-12-08T13:44:02.224Z,2.10
2022-12-08T13:56:05.540Z,2.08
2022-12-08T14:00:18.388Z,2.00
2022-12-08T14:05:47.558Z,1.90
2022-12-08T14:10:59.973Z,1.80
2022-12-08T14:16:03.109Z,1.80
2022-12-08T14:21:20.901Z,1.72
2022-12-08T14:26:25.571Z,1.90
2022-12-08T14:31:29.660Z,1.90
2022-12-08T14:36:34.134Z,1.98
2022-12-08T14:41:37.976Z,2.00
2022-12-08T14:47:10.355Z,2.00
2022-12-08T14:52:14.679Z,1.90
2022-12-08T14:57:19.022Z,1.90
2022-12-08T15:02:32.206Z,1.90
2022-12-08T15:07:53.105Z,1.90
2022-12-08T15:13:26.711Z,2.02
2022-12-08T15:18:39.788Z,2.10
2022-12-08T15:23:50.247Z,2.10
2022-12-08T15:28:55.155Z,2.10
2022-12-08T15:33:58.317Z,2.00
2022-12-08T15:39:01.802Z,2.00
2022-12-08T15:44:05.049Z,2.10
2022-12-08T15:49:18.716Z,2.20
2022-12-08T15:54:23.208Z,2.22
2022-12-08T15:59:26.417Z,2.18
2022-12-08T16:09:53.928Z,2.10
2022-12-08T16:20:28.156Z,2.30
2022-12-08T16:26:16.171Z,2.30
2022-12-08T16:31:10.286Z,2.20
2022-12-08T16:36:16.336Z,2.20
2022-12-08T16:41:38.385Z,2.18
2022-12-08T16:46:41.684Z,2.12
2022-12-08T16:51:44.893Z,2.24
2022-12-08T16:56:47.994Z,2.30
2022-12-08T17:01:51.310Z,2.30
2022-12-08T17:06:54.666Z,2.30
2022-12-08T17:12:03.452Z,2.22
2022-12-08T17:17:07.442Z,2.20
2022-12-08T17:22:10.708Z,2.20
2022-12-08T17:27:14.015Z,2.30
2022-12-08T17:32:18.083Z,2.36
2022-12-08T17:37:21.344Z,2.40
2022-12-08T17:42:26.411Z,2.32
2022-12-08T17:47:29.512Z,2.30
2022-12-08T17:52:32.920Z,2.26
2022-12-08T17:57:36.124Z,2.40
2022-12-08T18:02:39.376Z,2.50
2022-12-08T18:07:45.901Z,2.40
2022-12-08T18:12:49.967Z,2.34
2022-12-08T18:17:53.163Z,2.30
2022-12-08T18:22:57.079Z,2.30
2022-12-08T18:28:00.411Z,2.30
2022-12-08T18:33:06.621Z,2.40
2022-12-08T18:38:09.849Z,2.40
2022-12-08T18:43:13.190Z,2.50
2022-12-08T18:48:16.511Z,2.50
2022-12-08T18:53:19.646Z,2.50
2022-12-08T18:58:23.028Z,2.44
2022-12-08T19:03:26.176Z,2.40
2022-12-08T19:08:31.488Z,2.40
2022-12-08T19:13:35.012Z,2.40
2022-12-08T19:18:39.344Z,2.50
2022-12-08T19:23:42.858Z,2.60
2022-12-08T19:28:46.006Z,2.62
2022-12-08T19:33:49.482Z,2.60
2022-12-08T19:39:11.245Z,2.60
2022-12-08T19:44:34.399Z,2.60
2022-12-08T19:49:38.636Z,2.58
2022-12-08T19:54:41.860Z,2.70
2022-12-08T19:59:45.054Z,2.70
2022-12-08T20:04:48.297Z,2.76
2022-12-08T20:09:51.668Z,2.80
2022-12-08T20:14:54.806Z,2.80
2022-12-08T20:20:00.505Z,2.70
2022-12-08T20:25:06.922Z,2.70
2022-12-08T20:30:16.779Z,2.80
2022-12-08T20:35:22.165Z,2.90
2022-12-08T20:40:25.315Z,2.90
2022-12-08T20:45:28.622Z,2.90
2022-12-08T20:50:31.953Z,2.90
2022-12-08T20:55:38.526Z,2.80
2022-12-08T21:00:43.487Z,2.70
2022-12-08T21:05:52.913Z,2.70
2022-12-08T21:10:57.478Z,2.70
2022-12-08T21:16:01.078Z,2.70
2022-12-08T21:21:09.221Z,2.60
2022-12-08T21:26:26.592Z,2.40
2022-12-08T21:31:32.134Z,2.30
2022-12-08T21:36:35.486Z,2.20
2022-12-08T21:41:58.399Z,2.20
2022-12-08T21:47:02.121Z,2.20
2022-12-08T21:52:05.960Z,2.20
2022-12-08T21:57:09.320Z,2.20
2022-12-08T22:02:19.457Z,2.20
2022-12-08T22:07:25.733Z,2.10
2022-12-08T22:12:29.139Z,2.08
2022-12-08T22:17:36.951Z,2.10
2022-12-08T22:22:41.829Z,2.10
2022-12-08T22:27:45.189Z,2.18
2022-12-08T22:32:48.779Z,2.16
2022-12-08T22:37:52.099Z,2.10
2022-12-08T22:42:55.382Z,2.00
2022-12-08T22:47:58.591Z,2.00
2022-12-08T22:53:02.115Z,1.90
2022-12-08T22:58:05.376Z,1.90
2022-12-08T23:03:08.856Z,2.06
2022-12-08T23:08:16.497Z,2.10
2022-12-08T23:13:21.922Z,2.10
2022-12-08T23:18:25.116Z,2.20
2022-12-08T23:23:28.233Z,2.18
2022-12-08T23:34:03.457Z,2.10
2022-12-08T23:39:07.346Z,2.00
2022-12-08T23:44:12.410Z,2.00
2022-12-08T23:49:16.522Z,2.10
2022-12-08T23:54:19.930Z,2.06
2022-12-08T23:59:23.237Z,2.10
